Time;durP1;ratioP1;P1;durP2;ratioP2;P2;SDS_P1;SDS_P2;PMS_P1;PMS_P2;Temp;Humidity;BMP_temperature;BMP_pressure;BME280_temperature;BME280_humidity;BME280_pressure;Samples;Min_cycle;Max_cycle;Signal;HPM_P1;HPM_P2
2022/07/13 00:00:06;;;;;;;;;;;;;;;;;;1045171;28;3974;-49
2022/07/13 00:00:56;;;;;;;;;;;;;;;;;;1043864;28;4179;-49
2022/07/13 00:01:29;;;;;;;;;;;;;;;;;;1045067;28;1670;-50
2022/07/13 00:01:59;;;;;;;;;;;;;;;;;;1044943;28;3972;-53
2022/07/13 00:02:29;;;;;;;;;;;;;;;;;;1042342;28;1384;-50
2022/07/13 00:03:00;;;;;;;;;;;;;;;;;;1040549;28;3829;-51
2022/07/13 00:03:30;;;;;;;;;;;;;;;;;;1042487;28;1290;-52
2022/07/13 00:04:00;;;;;;;;;;;;;;;;;;1040986;28;4321;-48
2022/07/13 00:04:31;;;;;;;;;;;;;;;;;;1041258;28;1704;-51
2022/07/13 00:05:01;;;;;;;;;;;;;;;;;;1040710;28;4143;-51
2022/07/13 00:05:31;;;;;;;;;;;;;;;;;;1041831;28;1724;-48
2022/07/13 00:06:02;;;;;;;;;;;;;;;;;;1040757;28;4065;-54
2022/07/13 00:06:32;;;;;;;;;;;;;;;;;;1041035;28;1777;-49
2022/07/13 00:07:02;;;;;;;;;;;;;;;;;;1041491;28;4235;-51
2022/07/13 00:07:33;;;;;;;;;;;;;;;;;;1041255;28;1208;-47
2022/07/13 00:08:03;;;;;;;;;;;;;;;;;;1040812;28;4070;-47
2022/07/13 00:08:34;;;;;;;;;;;;;;;;;;1040205;28;1792;-49
2022/07/13 00:09:04;;;;;;;;;;;;;;;;;;1041676;28;4497;-53
2022/07/13 00:09:34;;;;;;;;;;;;;;;;;;1040831;28;1861;-53
2022/07/13 00:10:05;;;;;;;;;;;;;;;;;;1039218;28;4284;-47
2022/07/13 00:10:35;;;;;;;;;;;;;;;;;;1040122;28;1665;-51
2022/07/13 00:11:05;;;;;;;;;;;;;;;;;;1040626;28;4294;-49
2022/07/13 00:11:35;;;;;;;;;;;;;;;;;;1040348;28;1699;-52
2022/07/13 00:12:06;;;;;;;;;;;;;;;;;;1040369;28;4260;-49
2022/07/13 00:12:36;;;;;;;;;;;;;;;;;;1041896;28;1648;-52
2022/07/13 00:13:06;;;;;;;;;;;;;;;;;;1042156;28;4040;-49
2022/07/13 00:13:37;;;;;;;;;;;;;;;;;;1037828;28;1701;-51
2022/07/13 00:14:07;;;;;;;;;;;;;;;;;;1033893;28;4098;-51
2022/07/13 00:14:37;;;;;;;;;;;;;;;;;;1036087;28;1647;-51
2022/07/13 00:15:08;;;;;;;;;;;;;;;;;;1035802;28;4632;-52
2022/07/13 00:15:38;;;;;;;;;;;;;;;;;;1040051;28;1256;-51
2022/07/13 00:16:09;;;;;;;;;;;;;;;;;;1044954;28;3841;-49
2022/07/13 00:16:39;;;;;;;;;;;;;;;;;;1040470;28;1674;-49
2022/07/13 00:17:09;;;;;;;;;;;;;;;;;;1039864;28;3979;-52
2022/07/13 00:17:40;;;;;;;;;;;;;;;;;;1040045;28;1603;-51
2022/07/13 00:18:10;;;;;;;;;;;;;;;;;;1040443;28;3868;-50
2022/07/13 00:18:40;;;;;;;;;;;;;;;;;;1039795;28;1568;-50
2022/07/13 00:19:17;;;;;;;;;;;;;;;;;;1039570;28;3923;-49
2022/07/13 00:19:48;;;;;;;;;;;;;;;;;;1042263;28;1741;-49
2022/07/13 00:20:18;;;;;;;;;;;;;;;;;;1040962;28;4179;-49
2022/07/13 00:20:49;;;;;;;;;;;;;;;;;;1041474;28;1763;-50
2022/07/13 00:21:19;;;;;;;;;;;;;;;;;;1041488;28;4416;-50
2022/07/13 00:21:50;;;;;;;;;;;;;;;;;;1041556;28;1670;-53
2022/07/13 00:22:20;;;;;;;;;;;;;;;;;;1041500;28;4237;-50
2022/07/13 00:22:50;;;;;;;;;;;;;;;;;;1041515;28;3536;-52
2022/07/13 00:23:20;;;;;;;;;;;;;;;;;;1042369;28;3976;-53
2022/07/13 00:23:51;;;;;;;;;;;;;;;;;;1041749;28;1645;-49
2022/07/13 00:24:22;;;;;;;;;;;;;;;;;;1041733;28;4521;-53
2022/07/13 00:24:52;;;;;;;;;;;;;;;;;;1041357;28;1324;-51
2022/07/13 00:25:23;;;;;;;;;;;;;;;;;;1044761;28;4216;-50
2022/07/13 00:25:53;;;;;;;;;;;;;;;;;;1045777;28;1532;-50
2022/07/13 00:26:23;;;;;;;;;;;;;;;;;;1045459;28;3919;-50
2022/07/13 00:26:54;;;;;;;;;;;;;;;;;;1044786;28;1699;-50
2022/07/13 00:27:24;;;;;;;;;;;;;;;;;;1041017;28;4007;-46
2022/07/13 00:27:54;;;;;;;;;;;;;;;;;;1041433;28;1649;-52
2022/07/13 00:28:25;;;;;;;;;;;;;;;;;;1040698;28;3633;-51
2022/07/13 00:28:55;;;;;;;;;;;;;;;;;;1040059;28;4832;-49
2022/07/13 00:29:25;;;;;;;;;;;;;;;;;;1042211;28;1864;-47
2022/07/13 00:29:56;;;;;;;;;;;;;;;;;;1042488;28;4151;-49
2022/07/13 00:30:26;;;;;;;;;;;;;;;;;;1041788;28;1737;-49
2022/07/13 00:30:56;;;;;;;;;;;;;;;;;;1041665;28;4266;-50
2022/07/13 00:31:26;;;;;;;;;;;;;;;;;;1041231;28;1665;-52
2022/07/13 00:31:57;;;;;;;;;;;;;;;;;;1041215;28;4222;-50
2022/07/13 00:32:27;;;;;;;;;;;;;;;;;;1041915;28;1584;-50
2022/07/13 00:32:58;;;;;;;;;;;;;;;;;;1041501;28;4460;-51
2022/07/13 00:33:28;;;;;;;;;;;;;;;;;;1042315;28;1763;-46
2022/07/13 00:33:58;;;;;;;;;;;;;;;;;;1041438;28;3830;-49
2022/07/13 00:34:30;;;;;;;;;;;;;;;;;;1040787;28;1709;-50
2022/07/13 00:35:01;;;;;;;;;;;;;;;;;;1041881;28;4298;-51
2022/07/13 00:35:31;;;;;;;;;;;;;;;;;;1043033;28;1626;-51
2022/07/13 00:36:01;;;;;;;;;;;;;;;;;;1042083;28;4053;-50
2022/07/13 00:36:32;;;;;;;;;;;;;;;;;;1042766;28;1764;-50
2022/07/13 00:37:02;;;;;;;;;;;;;;;;;;1041166;28;3807;-49
2022/07/13 00:37:32;;;;;;;;;;;;;;;;;;1040966;28;1824;-50
2022/07/13 00:38:02;;;;;;;;;;;;;;;;;;1039840;28;3894;-51
2022/07/13 00:38:34;;;;;;;;;;;;;;;;;;1042514;28;1143;-53
2022/07/13 00:39:04;;;;;;;;;;;;;;;;;;1040386;28;3897;-54
2022/07/13 00:39:35;;;;;;;;;;;;;;;;;;1041568;28;1786;-48
2022/07/13 00:40:05;;;;;;;;;;;;;;;;;;1046218;28;3971;-50
2022/07/13 00:40:35;;;;;;;;;;;;;;;;;;1040152;28;1937;-51
2022/07/13 00:41:06;;;;;;;;;;;;;;;;;;1041572;28;4032;-51
2022/07/13 00:41:43;;;;;;;;;;;;;;;;;;1041446;28;1333;-51
2022/07/13 00:42:14;;;;;;;;;;;;;;;;;;1039808;28;3990;-47
2022/07/13 00:42:44;;;;;;;;;;;;;;;;;;1041909;28;1497;-50
2022/07/13 00:43:14;;;;;;;;;;;;;;;;;;1042474;28;3806;-51
2022/07/13 00:43:44;;;;;;;;;;;;;;;;;;1042385;28;1653;-52
2022/07/13 00:44:22;;;;;;;;;;;;;;;;;;1042107;28;3979;-53
2022/07/13 00:44:52;;;;;;;;;;;;;;;;;;1042482;28;1689;-53
2022/07/13 00:45:23;;;;;;;;;;;;;;;;;;1040524;28;4205;-49
2022/07/13 00:45:53;;;;;;;;;;;;;;;;;;1041601;28;1221;-52
2022/07/13 00:46:23;;;;;;;;;;;;;;;;;;1040920;28;4007;-48
2022/07/13 00:46:54;;;;;;;;;;;;;;;;;;1046577;28;1416;-48
2022/07/13 00:47:27;;;;;;;;;;;;;;;;;;1044583;28;4013;-49
2022/07/13 00:47:58;;;;;;;;;;;;;;;;;;1044995;28;3914;-50
2022/07/13 00:48:29;;;;;;;;;;;;;;;;;;1044142;28;1973;-50
2022/07/13 00:49:00;;;;;;;;;;;;;;;;;;1042306;28;4096;-49
2022/07/13 00:49:31;;;;;;;;;;;;;;;;;;1041835;28;1387;-48
2022/07/13 00:50:03;;;;;;;;;;;;;;;;;;1040976;28;3915;-47
2022/07/13 00:50:33;;;;;;;;;;;;;;;;;;1042279;28;1824;-48
2022/07/13 00:51:05;;;;;;;;;;;;;;;;;;1041478;28;4269;-51
2022/07/13 00:51:35;;;;;;;;;;;;;;;;;;1040968;28;1517;-53
2022/07/13 00:52:05;;;;;;;;;;;;;;;;;;1040602;28;3898;-51
2022/07/13 00:52:36;;;;;;;;;;;;;;;;;;1044151;28;1816;-51
2022/07/13 00:53:07;;;;;;;;;;;;;;;;;;1039409;28;4115;-52
2022/07/13 00:53:38;;;;;;;;;;;;;;;;;;1035383;28;1413;-49
2022/07/13 00:54:08;;;;;;;;;;;;;;;;;;1035221;28;4225;-52
2022/07/13 00:54:41;;;;;;;;;;;;;;;;;;1039464;28;1312;-48
2022/07/13 00:55:12;;;;;;;;;;;;;;;;;;1042467;28;4254;-52
2022/07/13 00:55:43;;;;;;;;;;;;;;;;;;1041362;28;1584;-48
2022/07/13 00:56:13;;;;;;;;;;;;;;;;;;1041120;28;3809;-50
2022/07/13 00:56:43;;;;;;;;;;;;;;;;;;1041899;28;1642;-54
2022/07/13 00:57:15;;;;;;;;;;;;;;;;;;1041052;28;4030;-53
2022/07/13 00:57:45;;;;;;;;;;;;;;;;;;1042475;28;1656;-48
2022/07/13 00:58:15;;;;;;;;;;;;;;;;;;1041528;28;3792;-50
2022/07/13 00:58:46;;;;;;;;;;;;;;;;;;1040695;28;1531;-50
2022/07/13 00:59:29;;;;;;;;;;;;;;;;;;1039616;28;3887;-52
2022/07/13 01:00:08;;;;;;;;;;;;;;;;;;1038097;28;6593;-52
2022/07/13 01:00:39;;;;;;;;;;;;;;;;;;1038465;28;1738;-47
2022/07/13 01:01:09;;;;;;;;;;;;;;;;;;1037177;28;4218;-52
2022/07/13 01:01:40;;;;;;;;;;;;;;;;;;1036716;28;1374;-49
2022/07/13 01:02:10;;;;;;;;;;;;;;;;;;1038783;28;4028;-52
2022/07/13 01:02:41;;;;;;;;;;;;;;;;;;1038832;28;1275;-49
2022/07/13 01:03:12;;;;;;;;;;;;;;;;;;1038992;28;3800;-46
2022/07/13 01:03:42;;;;;;;;;;;;;;;;;;1038873;28;1588;-48
2022/07/13 01:04:12;;;;;;;;;;;;;;;;;;1038533;28;3899;-50
2022/07/13 01:04:43;;;;;;;;;;;;;;;;;;1038708;28;1661;-49
2022/07/13 01:05:13;;;;;;;;;;;;;;;;;;1038324;28;4236;-48
2022/07/13 01:05:44;;;;;;;;;;;;;;;;;;1038883;28;1645;-54
2022/07/13 01:06:14;;;;;;;;;;;;;;;;;;1038108;28;3836;-54
2022/07/13 01:06:44;;;;;;;;;;;;;;;;;;1038810;28;1554;-52
2022/07/13 01:07:15;;;;;;;;;;;;;;;;;;1038954;28;4264;-52
2022/07/13 01:07:45;;;;;;;;;;;;;;;;;;1038993;28;1679;-49
2022/07/13 01:08:16;;;;;;;;;;;;;;;;;;1038207;28;3958;-51
2022/07/13 01:08:47;;;;;;;;;;;;;;;;;;1039174;28;1579;-48
2022/07/13 01:09:17;;;;;;;;;;;;;;;;;;1038996;28;3806;-52
2022/07/13 01:09:54;;;;;;;;;;;;;;;;;;1039513;28;1557;-49
2022/07/13 01:10:25;;;;;;;;;;;;;;;;;;1034193;28;3941;-49
2022/07/13 01:10:56;;;;;;;;;;;;;;;;;;1035259;28;4262;-48
2022/07/13 01:11:26;;;;;;;;;;;;;;;;;;1035667;28;1945;-49
2022/07/13 01:11:56;;;;;;;;;;;;;;;;;;1039419;28;3799;-48
2022/07/13 01:12:28;;;;;;;;;;;;;;;;;;1038386;28;1849;-50
2022/07/13 01:12:59;;;;;;;;;;;;;;;;;;1038613;28;3973;-49
2022/07/13 01:13:29;;;;;;;;;;;;;;;;;;1034495;28;2471;-49
2022/07/13 01:14:00;;;;;;;;;;;;;;;;;;1034852;28;4044;-51
2022/07/13 01:14:30;;;;;;;;;;;;;;;;;;1037447;28;1324;-52
2022/07/13 01:15:01;;;;;;;;;;;;;;;;;;1037485;28;4353;-52
2022/07/13 01:15:32;;;;;;;;;;;;;;;;;;1039091;28;1845;-49
2022/07/13 01:16:03;;;;;;;;;;;;;;;;;;1038520;28;3886;-49
2022/07/13 01:16:34;;;;;;;;;;;;;;;;;;1039034;28;1362;-48
2022/07/13 01:17:04;;;;;;;;;;;;;;;;;;1038914;28;4294;-53
2022/07/13 01:17:35;;;;;;;;;;;;;;;;;;1038794;28;1682;-48
2022/07/13 01:18:05;;;;;;;;;;;;;;;;;;1038084;28;3986;-54
2022/07/13 01:18:37;;;;;;;;;;;;;;;;;;1038721;28;1855;-52
2022/07/13 01:19:09;;;;;;;;;;;;;;;;;;1038526;28;3959;-53
2022/07/13 01:19:40;;;;;;;;;;;;;;;;;;1038779;28;1390;-51
2022/07/13 01:20:17;;;;;;;;;;;;;;;;;;1038997;28;3795;-53
2022/07/13 01:20:47;;;;;;;;;;;;;;;;;;1038288;28;1944;-54
2022/07/13 01:21:18;;;;;;;;;;;;;;;;;;1039135;28;4446;-50
2022/07/13 01:21:51;;;;;;;;;;;;;;;;;;1038743;28;1795;-50
2022/07/13 01:22:22;;;;;;;;;;;;;;;;;;1038578;28;4198;-56
2022/07/13 01:22:52;;;;;;;;;;;;;;;;;;1039041;28;1687;-51
2022/07/13 01:23:23;;;;;;;;;;;;;;;;;;1042015;28;3802;-52
2022/07/13 01:23:53;;;;;;;;;;;;;;;;;;1043048;28;1355;-54
2022/07/13 01:24:24;;;;;;;;;;;;;;;;;;1041603;28;3908;-50
2022/07/13 01:24:55;;;;;;;;;;;;;;;;;;1042486;28;1549;-50
2022/07/13 01:25:25;;;;;;;;;;;;;;;;;;1037991;28;3873;-47
2022/07/13 01:25:56;;;;;;;;;;;;;;;;;;1039036;28;4376;-54
2022/07/13 01:26:26;;;;;;;;;;;;;;;;;;1039256;28;1911;-48
2022/07/13 01:26:58;;;;;;;;;;;;;;;;;;1038585;28;3844;-53
2022/07/13 01:27:29;;;;;;;;;;;;;;;;;;1038542;28;1630;-53
2022/07/13 01:27:59;;;;;;;;;;;;;;;;;;1038039;28;4046;-49
2022/07/13 01:28:29;;;;;;;;;;;;;;;;;;1034893;28;1938;-51
2022/07/13 01:28:59;;;;;;;;;;;;;;;;;;1036840;28;4011;-50
2022/07/13 01:29:30;;;;;;;;;;;;;;;;;;1036494;28;1627;-51
2022/07/13 01:30:00;;;;;;;;;;;;;;;;;;1036120;28;4050;-50
2022/07/13 01:30:30;;;;;;;;;;;;;;;;;;1038799;28;1689;-51
2022/07/13 01:31:01;;;;;;;;;;;;;;;;;;1037840;28;3900;-54
2022/07/13 01:31:35;;;;;;;;;;;;;;;;;;1038947;28;1570;-52
2022/07/13 01:32:06;;;;;;;;;;;;;;;;;;1037765;28;3949;-54
2022/07/13 01:32:47;;;;;;;;;;;;;;;;;;1039247;28;1317;-51
2022/07/13 01:33:17;;;;;;;;;;;;;;;;;;1037731;28;4079;-51
2022/07/13 01:33:47;;;;;;;;;;;;;;;;;;1038910;28;1610;-52
2022/07/13 01:34:18;;;;;;;;;;;;;;;;;;1037881;28;3887;-52
2022/07/13 01:34:48;;;;;;;;;;;;;;;;;;1038893;28;1403;-50
2022/07/13 01:35:19;;;;;;;;;;;;;;;;;;1037549;28;3814;-55
2022/07/13 01:35:49;;;;;;;;;;;;;;;;;;1039432;28;1781;-52
2022/07/13 01:36:20;;;;;;;;;;;;;;;;;;1038013;28;3910;-50
2022/07/13 01:36:50;;;;;;;;;;;;;;;;;;1039180;28;1272;-51
2022/07/13 01:37:20;;;;;;;;;;;;;;;;;;1038088;28;3791;-53
2022/07/13 01:37:51;;;;;;;;;;;;;;;;;;1039485;28;1336;-48
2022/07/13 01:38:21;;;;;;;;;;;;;;;;;;1037893;28;3826;-50
2022/07/13 01:38:52;;;;;;;;;;;;;;;;;;1038757;28;1868;-52
2022/07/13 01:39:22;;;;;;;;;;;;;;;;;;1037615;28;3745;-50
2022/07/13 01:39:52;;;;;;;;;;;;;;;;;;1038750;28;1680;-52
2022/07/13 01:40:23;;;;;;;;;;;;;;;;;;1038450;28;3770;-49
2022/07/13 01:40:53;;;;;;;;;;;;;;;;;;1039322;28;1478;-51
2022/07/13 01:41:24;;;;;;;;;;;;;;;;;;1038525;28;3842;-51
2022/07/13 01:41:54;;;;;;;;;;;;;;;;;;1038852;28;1636;-51
2022/07/13 01:42:25;;;;;;;;;;;;;;;;;;1038047;28;4213;-50
2022/07/13 01:42:55;;;;;;;;;;;;;;;;;;1038493;28;4062;-51
2022/07/13 01:43:27;;;;;;;;;;;;;;;;;;1038474;28;1879;-52
2022/07/13 01:43:58;;;;;;;;;;;;;;;;;;1038378;28;3916;-52
2022/07/13 01:44:28;;;;;;;;;;;;;;;;;;1038255;28;1666;-48
2022/07/13 01:44:58;;;;;;;;;;;;;;;;;;1038860;28;3911;-52
2022/07/13 01:45:29;;;;;;;;;;;;;;;;;;1038425;28;1547;-51
2022/07/13 01:45:59;;;;;;;;;;;;;;;;;;1038044;28;4143;-50
2022/07/13 01:46:30;;;;;;;;;;;;;;;;;;1038332;28;1420;-49
2022/07/13 01:47:06;;;;;;;;;;;;;;;;;;1038443;28;4030;-50
2022/07/13 01:47:40;;;;;;;;;;;;;;;;;;1038846;28;1337;-52
2022/07/13 01:48:11;;;;;;;;;;;;;;;;;;1037896;28;3998;-53
2022/07/13 01:48:41;;;;;;;;;;;;;;;;;;1038980;28;1294;-52
2022/07/13 01:49:11;;;;;;;;;;;;;;;;;;1038021;28;4340;-52
2022/07/13 01:49:42;;;;;;;;;;;;;;;;;;1038556;28;1427;-51
2022/07/13 01:50:13;;;;;;;;;;;;;;;;;;1038325;28;3772;-52
2022/07/13 01:50:43;;;;;;;;;;;;;;;;;;1039011;28;1344;-55
2022/07/13 01:51:13;;;;;;;;;;;;;;;;;;1032640;28;4068;-53
2022/07/13 01:51:43;;;;;;;;;;;;;;;;;;1032635;28;1644;-53
2022/07/13 01:52:14;;;;;;;;;;;;;;;;;;1031852;28;3955;-52
2022/07/13 01:52:44;;;;;;;;;;;;;;;;;;1038666;28;1686;-52
2022/07/13 01:53:15;;;;;;;;;;;;;;;;;;1038168;28;4073;-54
2022/07/13 01:53:45;;;;;;;;;;;;;;;;;;1039765;28;1289;-50
2022/07/13 01:54:15;;;;;;;;;;;;;;;;;;1037432;28;4200;-50
2022/07/13 01:54:45;;;;;;;;;;;;;;;;;;1038484;28;1589;-53
2022/07/13 01:55:16;;;;;;;;;;;;;;;;;;1038118;28;4004;-52
2022/07/13 01:55:46;;;;;;;;;;;;;;;;;;1036163;28;1594;-50
2022/07/13 01:56:17;;;;;;;;;;;;;;;;;;1035685;28;3867;-50
2022/07/13 01:56:47;;;;;;;;;;;;;;;;;;1036883;28;1703;-51
2022/07/13 01:57:17;;;;;;;;;;;;;;;;;;1037513;28;4068;-47
2022/07/13 01:57:48;;;;;;;;;;;;;;;;;;1042760;28;1685;-52
2022/07/13 01:58:18;;;;;;;;;;;;;;;;;;1041594;28;4405;-51
2022/07/13 01:58:48;;;;;;;;;;;;;;;;;;1038420;28;1292;-49
2022/07/13 01:59:32;;;;;;;;;;;;;;;;;;1040868;28;3897;-50
2022/07/13 02:00:19;;;;;;;;;;;;;;;;;;1044342;28;3999;-52
2022/07/13 02:00:49;;;;;;;;;;;;;;;;;;1045780;28;1608;-52
2022/07/13 02:01:20;;;;;;;;;;;;;;;;;;1044209;28;4014;-52
2022/07/13 02:01:50;;;;;;;;;;;;;;;;;;1045891;28;1656;-52
2022/07/13 02:02:20;;;;;;;;;;;;;;;;;;1045285;28;3843;-54
2022/07/13 02:02:51;;;;;;;;;;;;;;;;;;1044113;28;1724;-49
2022/07/13 02:03:21;;;;;;;;;;;;;;;;;;1045073;28;3767;-50
2022/07/13 02:03:51;;;;;;;;;;;;;;;;;;1045204;28;1611;-50
2022/07/13 02:04:21;;;;;;;;;;;;;;;;;;1044713;28;3933;-51
2022/07/13 02:04:54;;;;;;;;;;;;;;;;;;1045826;28;1573;-55
2022/07/13 02:05:26;;;;;;;;;;;;;;;;;;1044555;28;4353;-50
2022/07/13 02:05:57;;;;;;;;;;;;;;;;;;1045457;28;4116;-51
2022/07/13 02:06:27;;;;;;;;;;;;;;;;;;1044322;28;1502;-52
2022/07/13 02:06:57;;;;;;;;;;;;;;;;;;1045403;28;4029;-53
2022/07/13 02:07:27;;;;;;;;;;;;;;;;;;1042499;28;1658;-48
2022/07/13 02:07:58;;;;;;;;;;;;;;;;;;1041910;28;3850;-52
2022/07/13 02:08:28;;;;;;;;;;;;;;;;;;1037526;28;1910;-56
2022/07/13 02:08:58;;;;;;;;;;;;;;;;;;1037876;28;3797;-48
2022/07/13 02:09:28;;;;;;;;;;;;;;;;;;1042273;28;1653;-49
2022/07/13 02:09:59;;;;;;;;;;;;;;;;;;1042792;28;3963;-51
2022/07/13 02:10:35;;;;;;;;;;;;;;;;;;1042383;28;1607;-50
2022/07/13 02:11:05;;;;;;;;;;;;;;;;;;1042269;28;3954;-51
2022/07/13 02:11:35;;;;;;;;;;;;;;;;;;1043676;28;1230;-52
2022/07/13 02:12:06;;;;;;;;;;;;;;;;;;1042736;28;3842;-49
2022/07/13 02:12:36;;;;;;;;;;;;;;;;;;1045036;28;1619;-53
2022/07/13 02:13:08;;;;;;;;;;;;;;;;;;1041638;28;3966;-51
2022/07/13 02:13:38;;;;;;;;;;;;;;;;;;1042818;28;1360;-51
2022/07/13 02:14:08;;;;;;;;;;;;;;;;;;1041743;28;3985;-52
2022/07/13 02:14:39;;;;;;;;;;;;;;;;;;1043170;28;1275;-52
2022/07/13 02:15:09;;;;;;;;;;;;;;;;;;1044150;28;3947;-52
2022/07/13 02:15:40;;;;;;;;;;;;;;;;;;1042344;28;1656;-54
2022/07/13 02:16:10;;;;;;;;;;;;;;;;;;1041784;28;3866;-55
2022/07/13 02:16:41;;;;;;;;;;;;;;;;;;1042603;28;1525;-51
2022/07/13 02:17:12;;;;;;;;;;;;;;;;;;1041231;28;4218;-50
2022/07/13 02:17:42;;;;;;;;;;;;;;;;;;1047312;28;1591;-52
2022/07/13 02:18:12;;;;;;;;;;;;;;;;;;1044625;28;4062;-50
2022/07/13 02:18:49;;;;;;;;;;;;;;;;;;1045481;28;1723;-55
2022/07/13 02:19:21;;;;;;;;;;;;;;;;;;1046035;28;4371;-49
2022/07/13 02:19:52;;;;;;;;;;;;;;;;;;1045506;28;2038;-50
2022/07/13 02:20:22;;;;;;;;;;;;;;;;;;1044677;28;4255;-49
2022/07/13 02:20:52;;;;;;;;;;;;;;;;;;1045329;28;1733;-54
2022/07/13 02:21:23;;;;;;;;;;;;;;;;;;1043604;28;3889;-52
2022/07/13 02:21:53;;;;;;;;;;;;;;;;;;1046153;28;1620;-53
2022/07/13 02:22:23;;;;;;;;;;;;;;;;;;1045306;28;3988;-53
2022/07/13 02:22:54;;;;;;;;;;;;;;;;;;1045681;28;1936;-50
2022/07/13 02:23:24;;;;;;;;;;;;;;;;;;1046279;28;3959;-50
2022/07/13 02:23:54;;;;;;;;;;;;;;;;;;1045228;28;1424;-48
2022/07/13 02:24:24;;;;;;;;;;;;;;;;;;1044627;28;3866;-53
2022/07/13 02:24:58;;;;;;;;;;;;;;;;;;1045882;28;1694;-51
2022/07/13 02:25:29;;;;;;;;;;;;;;;;;;1045537;28;3697;-53
2022/07/13 02:25:59;;;;;;;;;;;;;;;;;;1044830;28;4441;-54
2022/07/13 02:26:29;;;;;;;;;;;;;;;;;;1045553;28;1239;-55
2022/07/13 02:26:59;;;;;;;;;;;;;;;;;;1045257;28;3937;-53
2022/07/13 02:27:30;;;;;;;;;;;;;;;;;;1045279;28;1656;-52
2022/07/13 02:28:00;;;;;;;;;;;;;;;;;;1045103;28;4452;-52
2022/07/13 02:28:31;;;;;;;;;;;;;;;;;;1044852;28;1907;-48
2022/07/13 02:29:01;;;;;;;;;;;;;;;;;;1044983;28;4065;-52
2022/07/13 02:29:31;;;;;;;;;;;;;;;;;;1045588;28;1568;-52
2022/07/13 02:30:02;;;;;;;;;;;;;;;;;;1044361;28;4250;-53
2022/07/13 02:30:33;;;;;;;;;;;;;;;;;;1045982;28;1734;-52
2022/07/13 02:31:03;;;;;;;;;;;;;;;;;;1044187;28;4300;-54
2022/07/13 02:31:34;;;;;;;;;;;;;;;;;;1045297;28;1452;-51
2022/07/13 02:32:06;;;;;;;;;;;;;;;;;;1040308;28;3888;-51
2022/07/13 02:32:36;;;;;;;;;;;;;;;;;;1040729;28;1723;-51
2022/07/13 02:33:07;;;;;;;;;;;;;;;;;;1041346;28;3883;-51
2022/07/13 02:33:37;;;;;;;;;;;;;;;;;;1039996;28;1746;-52
2022/07/13 02:34:07;;;;;;;;;;;;;;;;;;1044890;28;3815;-50
2022/07/13 02:34:38;;;;;;;;;;;;;;;;;;1040185;28;1668;-51
2022/07/13 02:35:09;;;;;;;;;;;;;;;;;;1040342;28;4250;-52
2022/07/13 02:35:39;;;;;;;;;;;;;;;;;;1041031;28;1661;-52
2022/07/13 02:36:09;;;;;;;;;;;;;;;;;;1041146;28;3897;-49
2022/07/13 02:36:39;;;;;;;;;;;;;;;;;;1045685;28;1839;-50
2022/07/13 02:37:11;;;;;;;;;;;;;;;;;;1045619;28;4230;-52
2022/07/13 02:37:41;;;;;;;;;;;;;;;;;;1045160;28;1521;-51
2022/07/13 02:38:12;;;;;;;;;;;;;;;;;;1044409;28;3776;-50
2022/07/13 02:38:42;;;;;;;;;;;;;;;;;;1045449;28;1666;-52
2022/07/13 02:39:12;;;;;;;;;;;;;;;;;;1045228;28;3904;-52
2022/07/13 02:39:43;;;;;;;;;;;;;;;;;;1045618;28;1370;-50
2022/07/13 02:40:13;;;;;;;;;;;;;;;;;;1045251;28;4229;-51
2022/07/13 02:40:43;;;;;;;;;;;;;;;;;;1045327;28;1596;-49
2022/07/13 02:41:14;;;;;;;;;;;;;;;;;;1045273;28;3883;-49
2022/07/13 02:41:44;;;;;;;;;;;;;;;;;;1044664;28;1675;-52
2022/07/13 02:42:14;;;;;;;;;;;;;;;;;;1044710;28;4026;-52
2022/07/13 02:42:45;;;;;;;;;;;;;;;;;;1045071;28;1541;-54
2022/07/13 02:43:15;;;;;;;;;;;;;;;;;;1043588;28;3928;-51
2022/07/13 02:43:45;;;;;;;;;;;;;;;;;;1045632;28;1472;-48
2022/07/13 02:44:15;;;;;;;;;;;;;;;;;;1043778;28;4082;-53
2022/07/13 02:44:46;;;;;;;;;;;;;;;;;;1046337;28;1745;-51
2022/07/13 02:45:16;;;;;;;;;;;;;;;;;;1044749;28;4032;-50
2022/07/13 02:45:53;;;;;;;;;;;;;;;;;;1045037;28;1883;-54
2022/07/13 02:46:24;;;;;;;;;;;;;;;;;;1046103;28;3978;-52
2022/07/13 02:46:54;;;;;;;;;;;;;;;;;;1046912;28;1829;-50
2022/07/13 02:47:24;;;;;;;;;;;;;;;;;;1042247;28;3989;-53
2022/07/13 02:47:55;;;;;;;;;;;;;;;;;;1038280;28;2032;-49
2022/07/13 02:48:25;;;;;;;;;;;;;;;;;;1037957;28;3748;-53
2022/07/13 02:48:55;;;;;;;;;;;;;;;;;;1038047;28;4054;-49
2022/07/13 02:49:26;;;;;;;;;;;;;;;;;;1043117;28;1400;-50
2022/07/13 02:49:56;;;;;;;;;;;;;;;;;;1040167;28;4342;-54
2022/07/13 02:50:26;;;;;;;;;;;;;;;;;;1041298;28;1297;-53
2022/07/13 02:50:56;;;;;;;;;;;;;;;;;;1040194;28;3929;-51
2022/07/13 02:51:27;;;;;;;;;;;;;;;;;;1040744;28;1506;-53
2022/07/13 02:51:57;;;;;;;;;;;;;;;;;;1045726;28;4126;-50
2022/07/13 02:52:27;;;;;;;;;;;;;;;;;;1045849;28;1650;-54
2022/07/13 02:52:57;;;;;;;;;;;;;;;;;;1044872;28;3914;-50
2022/07/13 02:53:28;;;;;;;;;;;;;;;;;;1045355;28;1736;-53
2022/07/13 02:53:58;;;;;;;;;;;;;;;;;;1041036;28;4020;-55
2022/07/13 02:54:28;;;;;;;;;;;;;;;;;;1041528;28;1693;-54
2022/07/13 02:54:58;;;;;;;;;;;;;;;;;;1040859;28;3985;-47
2022/07/13 02:55:29;;;;;;;;;;;;;;;;;;1040300;28;1399;-54
2022/07/13 02:55:59;;;;;;;;;;;;;;;;;;1044006;28;3824;-50
2022/07/13 02:56:29;;;;;;;;;;;;;;;;;;1045313;28;1580;-50
2022/07/13 02:57:00;;;;;;;;;;;;;;;;;;1041244;28;3984;-56
2022/07/13 02:57:30;;;;;;;;;;;;;;;;;;1042550;28;1443;-50
2022/07/13 02:58:00;;;;;;;;;;;;;;;;;;1041588;28;3970;-52
2022/07/13 02:58:31;;;;;;;;;;;;;;;;;;1042487;28;1620;-49
2022/07/13 02:59:02;;;;;;;;;;;;;;;;;;1044889;28;3969;-48
2022/07/13 02:59:45;;;;;;;;;;;;;;;;;;1044642;28;2025;-50
2022/07/13 03:00:22;;;;;;;;;;;;;;;;;;1044921;28;4031;-52
2022/07/13 03:00:52;;;;;;;;;;;;;;;;;;1043921;28;1599;-51
2022/07/13 03:01:23;;;;;;;;;;;;;;;;;;1044789;28;4021;-51
2022/07/13 03:01:53;;;;;;;;;;;;;;;;;;1045257;28;1781;-50
2022/07/13 03:02:23;;;;;;;;;;;;;;;;;;1045223;28;3780;-49
2022/07/13 03:02:53;;;;;;;;;;;;;;;;;;1044046;28;1628;-51
2022/07/13 03:03:24;;;;;;;;;;;;;;;;;;1044802;28;4113;-52
2022/07/13 03:03:54;;;;;;;;;;;;;;;;;;1045306;28;1821;-51
2022/07/13 03:04:24;;;;;;;;;;;;;;;;;;1040339;28;3774;-52
2022/07/13 03:04:55;;;;;;;;;;;;;;;;;;1040965;28;1815;-51
2022/07/13 03:05:25;;;;;;;;;;;;;;;;;;1039852;28;3732;-54
2022/07/13 03:05:57;;;;;;;;;;;;;;;;;;1040291;28;3909;-48
2022/07/13 03:06:28;;;;;;;;;;;;;;;;;;1046443;28;1673;-54
2022/07/13 03:06:58;;;;;;;;;;;;;;;;;;1040420;28;4116;-52
2022/07/13 03:07:28;;;;;;;;;;;;;;;;;;1036619;28;1617;-49
2022/07/13 03:07:59;;;;;;;;;;;;;;;;;;1035041;28;4139;-54
2022/07/13 03:08:29;;;;;;;;;;;;;;;;;;1036397;28;1910;-51
2022/07/13 03:08:59;;;;;;;;;;;;;;;;;;1041904;28;3889;-50
2022/07/13 03:09:29;;;;;;;;;;;;;;;;;;1043223;28;1643;-52
2022/07/13 03:10:00;;;;;;;;;;;;;;;;;;1042227;28;4061;-50
2022/07/13 03:10:31;;;;;;;;;;;;;;;;;;1043205;28;1355;-50
2022/07/13 03:11:01;;;;;;;;;;;;;;;;;;1041823;28;4169;-53
2022/07/13 03:11:31;;;;;;;;;;;;;;;;;;1045637;28;1688;-52
2022/07/13 03:12:02;;;;;;;;;;;;;;;;;;1044218;28;3780;-49
2022/07/13 03:12:33;;;;;;;;;;;;;;;;;;1046526;28;1666;-53
2022/07/13 03:13:03;;;;;;;;;;;;;;;;;;1045162;28;4363;-53
2022/07/13 03:13:33;;;;;;;;;;;;;;;;;;1044464;28;1361;-51
2022/07/13 03:14:04;;;;;;;;;;;;;;;;;;1044534;28;3820;-49
2022/07/13 03:14:34;;;;;;;;;;;;;;;;;;1046182;28;1631;-55
2022/07/13 03:15:04;;;;;;;;;;;;;;;;;;1040495;28;4455;-51
2022/07/13 03:15:35;;;;;;;;;;;;;;;;;;1040665;28;1830;-51
2022/07/13 03:16:05;;;;;;;;;;;;;;;;;;1039956;28;3790;-50
2022/07/13 03:16:35;;;;;;;;;;;;;;;;;;1040494;28;1751;-52
2022/07/13 03:17:05;;;;;;;;;;;;;;;;;;1044474;28;4071;-51
2022/07/13 03:17:36;;;;;;;;;;;;;;;;;;1043913;28;1435;-53
2022/07/13 03:18:07;;;;;;;;;;;;;;;;;;1044097;28;4070;-53
2022/07/13 03:18:38;;;;;;;;;;;;;;;;;;1044809;28;1589;-53
2022/07/13 03:19:08;;;;;;;;;;;;;;;;;;1044152;28;4178;-51
2022/07/13 03:19:38;;;;;;;;;;;;;;;;;;1045517;28;1770;-51
2022/07/13 03:20:09;;;;;;;;;;;;;;;;;;1044411;28;3955;-47
2022/07/13 03:20:39;;;;;;;;;;;;;;;;;;1045188;28;1538;-52
2022/07/13 03:21:10;;;;;;;;;;;;;;;;;;1041532;28;3905;-51
2022/07/13 03:21:40;;;;;;;;;;;;;;;;;;1037786;28;1669;-54
2022/07/13 03:22:10;;;;;;;;;;;;;;;;;;1037537;28;4013;-51
2022/07/13 03:22:40;;;;;;;;;;;;;;;;;;1038716;28;1976;-53
2022/07/13 03:23:11;;;;;;;;;;;;;;;;;;1040956;28;4828;-50
2022/07/13 03:23:41;;;;;;;;;;;;;;;;;;1045715;28;1703;-52
2022/07/13 03:24:11;;;;;;;;;;;;;;;;;;1044859;28;4441;-50
2022/07/13 03:24:41;;;;;;;;;;;;;;;;;;1042511;28;3948;-51
2022/07/13 03:25:12;;;;;;;;;;;;;;;;;;1042060;28;4270;-54
2022/07/13 03:25:42;;;;;;;;;;;;;;;;;;1042782;28;1695;-50
2022/07/13 03:26:13;;;;;;;;;;;;;;;;;;1042439;28;4496;-51
2022/07/13 03:26:43;;;;;;;;;;;;;;;;;;1045616;28;1920;-55
2022/07/13 03:27:13;;;;;;;;;;;;;;;;;;1045674;28;3798;-52
2022/07/13 03:27:43;;;;;;;;;;;;;;;;;;1044333;28;1638;-52
2022/07/13 03:28:14;;;;;;;;;;;;;;;;;;1045660;28;4040;-51
2022/07/13 03:28:45;;;;;;;;;;;;;;;;;;1044773;28;1570;-48
2022/07/13 03:29:15;;;;;;;;;;;;;;;;;;1042268;28;4048;-50
2022/07/13 03:29:45;;;;;;;;;;;;;;;;;;1041970;28;1645;-54
2022/07/13 03:30:15;;;;;;;;;;;;;;;;;;1038424;28;3822;-53
2022/07/13 03:30:46;;;;;;;;;;;;;;;;;;1041465;28;1512;-53
2022/07/13 03:31:17;;;;;;;;;;;;;;;;;;1040176;28;3789;-53
2022/07/13 03:31:47;;;;;;;;;;;;;;;;;;1041002;28;1465;-49
2022/07/13 03:32:18;;;;;;;;;;;;;;;;;;1043093;28;3859;-53
2022/07/13 03:32:48;;;;;;;;;;;;;;;;;;1045044;28;1679;-47
2022/07/13 03:33:18;;;;;;;;;;;;;;;;;;1044628;28;4090;-52
2022/07/13 03:33:49;;;;;;;;;;;;;;;;;;1046214;28;1806;-51
2022/07/13 03:34:19;;;;;;;;;;;;;;;;;;1045102;28;4419;-54